createdAt,value
2023-04-07T00:01:33.498Z,16.13
2023-04-07T00:04:00.604Z,16.07
2023-04-07T00:06:27.817Z,16.07
2023-04-07T00:08:54.634Z,16.08
2023-04-07T00:11:23.759Z,16.06
2023-04-07T00:13:50.658Z,16.06
2023-04-07T00:16:17.964Z,16.07
2023-04-07T00:18:44.805Z,16.05
2023-04-07T00:21:11.649Z,16.03
2023-04-07T00:23:38.510Z,16.05
2023-04-07T00:26:05.285Z,16.05
2023-04-07T00:28:32.019Z,16.04
2023-04-07T00:30:58.868Z,16.05
2023-04-07T00:33:26.309Z,16.05
2023-04-07T00:35:54.659Z,16.04
2023-04-07T00:38:21.559Z,16.02
2023-04-07T00:40:48.351Z,16.04
2023-04-07T00:43:15.183Z,16.04
2023-04-07T00:45:42.144Z,16.02
2023-04-07T00:48:08.949Z,16.02
2023-04-07T00:50:35.758Z,16.01
2023-04-07T00:53:04.835Z,16.05
2023-04-07T00:55:31.655Z,16.02
2023-04-07T00:57:58.404Z,15.99
2023-04-07T01:00:28.325Z,16.03
2023-04-07T01:02:59.078Z,15.99
2023-04-07T01:05:33.241Z,15.96
2023-04-07T01:08:08.977Z,15.97
2023-04-07T01:10:44.296Z,15.99
2023-04-07T01:13:21.122Z,16.01
2023-04-07T01:15:50.211Z,16.03
2023-04-07T01:18:21.082Z,15.98
2023-04-07T01:20:50.581Z,15.99
2023-04-07T01:23:23.656Z,15.98
2023-04-07T01:25:59.982Z,15.98
2023-04-07T01:28:29.962Z,15.99
2023-04-07T01:30:58.523Z,15.97
2023-04-07T01:33:25.664Z,16.00
2023-04-07T01:35:53.489Z,15.95
2023-04-07T01:38:21.331Z,15.95
2023-04-07T01:40:49.042Z,15.95
2023-04-07T01:43:16.865Z,15.95
2023-04-07T01:45:44.515Z,15.97
2023-04-07T01:48:12.014Z,15.95
2023-04-07T01:50:39.174Z,15.94
2023-04-07T01:53:06.293Z,15.94
2023-04-07T01:55:33.167Z,15.93
2023-04-07T01:58:04.426Z,15.93
2023-04-07T02:00:31.556Z,15.95
2023-04-07T02:02:59.892Z,15.93
2023-04-07T02:05:27.970Z,15.91
2023-04-07T02:07:58.410Z,15.92
2023-04-07T02:10:27.416Z,15.90
2023-04-07T02:12:54.416Z,15.91
2023-04-07T02:15:22.420Z,15.94
2023-04-07T02:17:52.241Z,15.92
2023-04-07T02:20:20.635Z,15.89
2023-04-07T02:22:47.589Z,15.90
2023-04-07T02:25:17.498Z,15.91
2023-04-07T02:27:44.270Z,15.89
2023-04-07T02:30:11.391Z,15.91
2023-04-07T02:32:38.192Z,15.89
2023-04-07T02:35:05.292Z,15.89
2023-04-07T02:37:32.071Z,15.90
2023-04-07T02:39:58.923Z,15.87
2023-04-07T02:42:25.782Z,15.87
2023-04-07T02:44:52.589Z,15.87
2023-04-07T02:47:19.473Z,15.87
2023-04-07T02:49:46.330Z,15.87
2023-04-07T02:52:13.185Z,15.85
2023-04-07T02:54:40.099Z,15.86
2023-04-07T02:57:06.900Z,15.86
2023-04-07T02:59:33.662Z,15.86
2023-04-07T03:02:00.633Z,15.85
2023-04-07T03:04:27.808Z,15.86
2023-04-07T03:06:54.847Z,15.86
2023-04-07T03:09:21.607Z,15.85
2023-04-07T03:11:48.343Z,15.88
2023-04-07T03:14:15.212Z,15.87
2023-04-07T03:16:42.399Z,15.84
2023-04-07T03:19:10.458Z,15.85
2023-04-07T03:21:40.556Z,15.83
2023-04-07T03:24:07.713Z,15.86
2023-04-07T03:26:34.677Z,15.85
2023-04-07T03:29:01.619Z,15.84
2023-04-07T03:31:28.749Z,15.83
2023-04-07T03:33:55.583Z,15.84
2023-04-07T03:36:22.557Z,15.85
2023-04-07T03:38:49.393Z,15.84
2023-04-07T03:41:16.188Z,15.84
2023-04-07T03:43:43.029Z,15.81
2023-04-07T03:46:09.904Z,15.84
2023-04-07T03:48:36.789Z,15.81
2023-04-07T03:51:03.720Z,15.81
2023-04-07T03:53:30.558Z,15.82
2023-04-07T03:55:57.424Z,15.80
2023-04-07T03:58:26.759Z,15.83
2023-04-07T04:00:53.690Z,15.84
2023-04-07T04:03:22.793Z,15.79
2023-04-07T04:05:49.666Z,15.81
2023-04-07T04:08:16.456Z,15.83
2023-04-07T04:10:43.280Z,15.80
2023-04-07T04:13:10.247Z,15.81
2023-04-07T04:15:39.326Z,15.81
2023-04-07T04:18:06.358Z,15.78
2023-04-07T04:20:33.215Z,15.79
2023-04-07T04:23:00.102Z,15.77
2023-04-07T04:25:26.953Z,15.80
2023-04-07T04:27:53.723Z,15.80
2023-04-07T04:30:20.923Z,15.78
2023-04-07T04:32:47.978Z,15.77
2023-04-07T04:35:14.878Z,15.78
2023-04-07T04:37:42.010Z,15.80
2023-04-07T04:40:09.683Z,15.82
2023-04-07T04:42:36.583Z,15.79
2023-04-07T04:45:03.556Z,15.81
2023-04-07T04:47:30.353Z,15.79
2023-04-07T04:49:57.310Z,15.79
2023-04-07T04:52:24.155Z,15.80
2023-04-07T04:54:50.941Z,15.78
2023-04-07T04:57:17.743Z,15.76
2023-04-07T04:59:44.569Z,15.76
2023-04-07T05:02:11.619Z,15.76
2023-04-07T05:04:38.540Z,15.76
2023-04-07T05:07:05.636Z,15.78
2023-04-07T05:09:34.706Z,15.75
2023-04-07T05:12:02.852Z,15.77
2023-04-07T05:14:29.811Z,15.73
2023-04-07T05:16:57.206Z,15.73
2023-04-07T05:19:24.083Z,15.73
2023-04-07T05:21:51.265Z,15.74
2023-04-07T05:24:18.181Z,15.75
2023-04-07T05:26:45.005Z,15.72
2023-04-07T05:29:11.904Z,15.74
2023-04-07T05:31:40.616Z,15.76
2023-04-07T05:34:07.544Z,15.77
2023-04-07T05:36:35.526Z,15.76
2023-04-07T05:39:02.456Z,15.74
2023-04-07T05:41:29.492Z,15.75
2023-04-07T05:43:56.351Z,15.72
2023-04-07T05:46:23.280Z,15.70
2023-04-07T05:48:50.158Z,15.72
2023-04-07T05:51:17.062Z,15.74
2023-04-07T05:53:43.982Z,15.72
2023-04-07T05:56:10.831Z,15.71
2023-04-07T05:58:37.689Z,15.70
2023-04-07T06:01:04.530Z,15.70
2023-04-07T06:05:58.840Z,15.67
2023-04-07T06:08:25.770Z,15.71
2023-04-07T06:10:52.672Z,15.71
2023-04-07T06:13:19.536Z,15.71
2023-04-07T06:15:46.537Z,15.70
2023-04-07T06:18:13.427Z,15.70
2023-04-07T06:20:40.317Z,15.71
2023-04-07T06:23:07.349Z,15.70
2023-04-07T06:25:34.279Z,15.67
2023-04-07T06:28:01.530Z,15.69
2023-04-07T06:30:28.555Z,15.67
2023-04-07T06:32:55.513Z,15.65
2023-04-07T06:35:22.534Z,15.66
2023-04-07T06:37:49.385Z,15.69
2023-04-07T06:40:16.310Z,15.69
2023-04-07T06:42:43.165Z,15.69
2023-04-07T06:45:10.441Z,15.69
2023-04-07T06:47:38.556Z,15.68
2023-04-07T06:50:08.175Z,15.65
2023-04-07T06:52:35.050Z,15.68
2023-04-07T06:55:01.950Z,15.69
2023-04-07T06:57:28.832Z,15.67
2023-04-07T06:59:55.902Z,15.65
2023-04-07T07:02:23.022Z,15.67
2023-04-07T07:04:49.915Z,15.68
2023-04-07T07:07:16.870Z,15.68
2023-04-07T07:09:43.809Z,15.67
2023-04-07T07:12:10.717Z,15.67
2023-04-07T07:14:37.561Z,15.65
2023-04-07T07:17:04.640Z,15.67
2023-04-07T07:19:31.660Z,15.65
2023-04-07T07:21:58.575Z,15.66
2023-04-07T07:24:25.581Z,15.65
2023-04-07T07:26:54.814Z,15.64
2023-04-07T07:29:21.657Z,15.63
2023-04-07T07:31:48.558Z,15.65
2023-04-07T07:34:15.678Z,15.66
2023-04-07T07:36:42.641Z,15.66
2023-04-07T07:39:09.720Z,15.64
2023-04-07T07:41:36.699Z,15.66
2023-04-07T07:44:03.686Z,15.66
2023-04-07T07:46:32.868Z,15.66
2023-04-07T07:48:59.946Z,15.63
2023-04-07T07:51:28.383Z,15.65
2023-04-07T07:53:55.446Z,15.66
2023-04-07T07:56:22.940Z,15.64
2023-04-07T07:58:49.831Z,15.65
2023-04-07T08:01:16.886Z,15.65
2023-04-07T08:03:44.038Z,15.65
2023-04-07T08:06:11.140Z,15.65
2023-04-07T08:08:40.181Z,15.66
2023-04-07T08:11:07.317Z,15.66
2023-04-07T08:13:34.191Z,15.68
2023-04-07T08:16:01.238Z,15.66
2023-04-07T08:18:30.809Z,15.66
2023-04-07T08:20:57.925Z,15.65
2023-04-07T08:23:24.789Z,15.65
2023-04-07T08:25:51.844Z,15.70
2023-04-07T08:28:18.763Z,15.66
2023-04-07T08:30:45.829Z,15.67
2023-04-07T08:33:12.689Z,15.65
2023-04-07T08:35:39.714Z,15.67
2023-04-07T08:38:08.758Z,15.64
2023-04-07T08:40:40.772Z,15.67
2023-04-07T08:43:09.695Z,15.66
2023-04-07T08:45:39.331Z,15.66
2023-04-07T08:48:13.377Z,15.69
2023-04-07T08:50:40.862Z,15.69
2023-04-07T08:53:09.588Z,15.68
2023-04-07T08:55:36.899Z,15.71
2023-04-07T08:58:04.652Z,15.70
2023-04-07T09:00:32.213Z,15.70
2023-04-07T09:03:00.718Z,15.69
2023-04-07T09:05:27.931Z,15.69
2023-04-07T09:07:54.836Z,15.71
2023-04-07T09:10:21.871Z,15.70
2023-04-07T09:12:48.849Z,15.70
2023-04-07T09:15:16.226Z,15.72
2023-04-07T09:17:43.265Z,15.77
2023-04-07T09:20:10.890Z,15.77
2023-04-07T09:22:41.364Z,15.78
2023-04-07T09:25:11.518Z,15.79
2023-04-07T09:27:38.440Z,15.80
2023-04-07T09:30:08.460Z,15.80
2023-04-07T09:32:38.019Z,15.81
2023-04-07T09:35:05.214Z,15.83
2023-04-07T09:37:32.968Z,15.83
2023-04-07T09:40:01.726Z,15.87
2023-04-07T09:42:32.708Z,15.87
2023-04-07T09:45:00.659Z,15.90
2023-04-07T09:47:29.541Z,15.90
2023-04-07T09:49:57.012Z,15.90
2023-04-07T09:52:26.838Z,15.91
2023-04-07T09:54:55.923Z,15.94
2023-04-07T09:57:23.164Z,15.97
2023-04-07T09:59:50.952Z,15.98
2023-04-07T10:02:17.896Z,15.98
2023-04-07T10:04:45.059Z,16.00
2023-04-07T10:07:12.283Z,16.01
2023-04-07T10:09:39.525Z,16.04
2023-04-07T10:12:07.275Z,16.05
2023-04-07T10:14:36.527Z,16.02
2023-04-07T10:17:04.476Z,16.05
2023-04-07T10:19:34.364Z,16.04
2023-04-07T10:22:05.574Z,16.05
2023-04-07T10:24:38.095Z,16.04
2023-04-07T10:27:08.224Z,16.05
2023-04-07T10:29:39.820Z,16.03
2023-04-07T10:32:07.346Z,16.03
2023-04-07T10:34:37.562Z,16.03
2023-04-07T10:37:07.575Z,16.10
2023-04-07T10:39:36.228Z,16.08
2023-04-07T10:42:03.215Z,16.08
2023-04-07T10:44:33.989Z,16.12
2023-04-07T10:47:02.245Z,16.11
2023-04-07T10:49:29.386Z,16.16
2023-04-07T10:51:59.367Z,16.19
2023-04-07T10:54:29.543Z,16.22
2023-04-07T10:56:59.539Z,16.22
2023-04-07T10:59:28.110Z,16.21
2023-04-07T11:02:15.050Z,16.24
2023-04-07T11:04:43.673Z,16.27
2023-04-07T11:07:11.763Z,16.34
2023-04-07T11:09:38.654Z,16.31
2023-04-07T11:12:06.623Z,16.31
2023-04-07T11:14:34.101Z,16.32
2023-04-07T11:17:02.494Z,16.39
2023-04-07T11:19:30.365Z,16.45
2023-04-07T11:22:00.401Z,16.53
2023-04-07T11:24:30.622Z,16.59
2023-04-07T11:26:57.645Z,16.61
2023-04-07T11:29:27.806Z,16.61
2023-04-07T11:31:55.800Z,16.55
2023-04-07T11:34:29.461Z,16.52
2023-04-07T11:37:00.184Z,16.48
2023-04-07T11:39:31.464Z,16.51
2023-04-07T11:41:58.640Z,16.57
2023-04-07T11:44:27.055Z,16.58
2023-04-07T11:46:57.236Z,16.66
2023-04-07T11:49:25.097Z,16.68
2023-04-07T11:51:55.174Z,16.71
2023-04-07T11:54:22.622Z,16.75
2023-04-07T11:56:50.336Z,16.76
2023-04-07T11:59:21.270Z,16.82
2023-04-07T12:01:48.610Z,16.83
2023-04-07T12:04:16.567Z,16.85
2023-04-07T12:06:44.265Z,16.83
2023-04-07T12:09:19.827Z,16.86
2023-04-07T12:11:49.971Z,16.86
2023-04-07T12:14:16.865Z,16.90
2023-04-07T12:16:43.849Z,16.93
2023-04-07T12:19:10.924Z,16.94
2023-04-07T12:21:38.042Z,16.99
2023-04-07T12:24:04.964Z,16.96
2023-04-07T12:26:33.052Z,16.94
2023-04-07T12:29:05.480Z,16.94
2023-04-07T12:31:33.159Z,16.85
2023-04-07T12:34:01.608Z,16.83
2023-04-07T12:36:29.789Z,16.81
2023-04-07T12:38:57.576Z,16.78
2023-04-07T12:41:24.938Z,16.77
2023-04-07T12:43:52.537Z,16.74
2023-04-07T12:46:19.970Z,16.79
2023-04-07T12:48:48.150Z,16.83
2023-04-07T12:51:15.328Z,16.84
2023-04-07T12:53:42.304Z,16.86
2023-04-07T12:56:09.226Z,16.89
2023-04-07T12:58:36.590Z,16.86
2023-04-07T13:01:03.574Z,16.89
2023-04-07T13:03:30.898Z,16.91
2023-04-07T13:06:01.600Z,16.88
2023-04-07T13:08:29.716Z,16.88
2023-04-07T13:10:57.111Z,16.87
2023-04-07T13:13:24.224Z,16.89
2023-04-07T13:15:51.338Z,16.88
2023-04-07T13:18:18.398Z,16.90
2023-04-07T13:20:51.887Z,16.94
2023-04-07T13:23:42.173Z,16.95
2023-04-07T13:26:10.766Z,16.94
2023-04-07T13:28:38.373Z,16.93
2023-04-07T13:31:05.351Z,16.92
2023-04-07T13:33:32.450Z,16.92
2023-04-07T13:35:59.714Z,16.92
2023-04-07T13:38:26.978Z,16.94
2023-04-07T13:40:53.945Z,16.93
2023-04-07T13:43:21.075Z,16.94
2023-04-07T13:45:48.859Z,16.96
2023-04-07T13:48:16.148Z,16.94
2023-04-07T13:50:45.358Z,16.94
2023-04-07T13:53:12.306Z,16.97
2023-04-07T13:55:39.598Z,16.97
2023-04-07T13:58:06.745Z,16.97
2023-04-07T14:00:36.052Z,16.98
2023-04-07T14:03:03.258Z,16.97
2023-04-07T14:05:30.747Z,16.99
2023-04-07T14:07:57.760Z,17.00
2023-04-07T14:10:24.761Z,16.99
2023-04-07T14:12:52.017Z,16.97
2023-04-07T14:15:19.082Z,16.97
2023-04-07T14:17:46.074Z,16.93
2023-04-07T14:20:13.192Z,16.94
2023-04-07T14:22:40.498Z,16.94
2023-04-07T14:25:08.057Z,16.94
2023-04-07T14:27:34.957Z,16.95
2023-04-07T14:30:01.900Z,16.96
2023-04-07T14:32:30.031Z,16.93
2023-04-07T14:34:59.501Z,16.92
2023-04-07T14:37:28.811Z,16.90
2023-04-07T14:42:25.642Z,16.88
2023-04-07T14:44:53.674Z,16.88
2023-04-07T14:47:21.470Z,16.88
2023-04-07T14:49:51.859Z,16.88
2023-04-07T14:52:21.231Z,16.89
2023-04-07T14:54:48.807Z,16.88
2023-04-07T14:57:17.176Z,16.88
2023-04-07T14:59:44.303Z,16.90
2023-04-07T15:02:11.640Z,16.89
2023-04-07T15:04:38.971Z,16.90
2023-04-07T15:07:06.098Z,16.90
2023-04-07T15:09:33.321Z,16.90
2023-04-07T15:12:01.076Z,16.91
2023-04-07T15:14:28.242Z,16.89
2023-04-07T15:16:55.281Z,16.90
2023-04-07T15:19:35.444Z,16.89
2023-04-07T15:22:02.577Z,16.92
2023-04-07T15:24:29.576Z,16.91
2023-04-07T15:26:56.546Z,16.90
2023-04-07T15:29:23.439Z,16.94
2023-04-07T15:31:50.746Z,16.91
2023-04-07T15:34:19.060Z,16.93
2023-04-07T15:36:45.943Z,16.94
2023-04-07T15:39:13.390Z,16.96
2023-04-07T15:41:40.493Z,16.94
2023-04-07T15:44:07.429Z,16.96
2023-04-07T15:46:34.558Z,16.98
2023-04-07T15:49:02.324Z,16.96
2023-04-07T15:51:29.996Z,16.96
2023-04-07T15:53:56.975Z,16.93
2023-04-07T15:56:25.069Z,16.95
2023-04-07T15:58:52.284Z,16.96
2023-04-07T16:01:19.327Z,16.98
2023-04-07T16:03:46.430Z,16.96
2023-04-07T16:06:13.626Z,16.95
2023-04-07T16:08:41.406Z,16.95
2023-04-07T16:11:08.406Z,16.94
2023-04-07T16:13:37.588Z,16.94
2023-04-07T16:16:04.584Z,16.94
2023-04-07T16:18:31.660Z,16.93
2023-04-07T16:20:58.640Z,16.89
2023-04-07T16:23:25.900Z,16.90
2023-04-07T16:25:52.840Z,16.89
2023-04-07T16:28:19.994Z,16.90
2023-04-07T16:30:46.990Z,16.92
2023-04-07T16:33:14.041Z,16.85
2023-04-07T16:35:41.281Z,16.86
2023-04-07T16:38:08.267Z,16.85
2023-04-07T16:40:35.188Z,16.85
2023-04-07T16:43:02.217Z,16.80
2023-04-07T16:45:29.225Z,16.83
2023-04-07T16:47:56.309Z,16.83
2023-04-07T16:50:23.554Z,16.82
2023-04-07T16:52:50.719Z,16.79
2023-04-07T16:55:17.827Z,16.79
2023-04-07T16:57:44.854Z,16.79
2023-04-07T17:00:12.356Z,16.80
2023-04-07T17:02:39.508Z,16.81
2023-04-07T17:05:07.166Z,16.79
2023-04-07T17:07:34.241Z,16.79
2023-04-07T17:10:01.763Z,16.82
2023-04-07T17:12:28.676Z,16.78
2023-04-07T17:14:55.544Z,16.75
2023-04-07T17:17:22.846Z,16.76
2023-04-07T17:19:49.859Z,16.78
2023-04-07T17:22:16.810Z,16.77
2023-04-07T17:24:43.738Z,16.76
2023-04-07T17:27:10.997Z,16.77
2023-04-07T17:29:37.903Z,16.76
2023-04-07T17:32:05.077Z,16.76
2023-04-07T17:34:32.688Z,16.77
2023-04-07T17:36:59.701Z,16.74
2023-04-07T17:39:26.647Z,16.72
2023-04-07T17:41:53.652Z,16.75
2023-04-07T17:44:20.706Z,16.73
2023-04-07T17:46:47.838Z,16.75
2023-04-07T17:49:15.574Z,16.70
2023-04-07T17:51:43.257Z,16.74
2023-04-07T17:54:10.761Z,16.70
2023-04-07T17:56:38.558Z,16.73
2023-04-07T17:59:05.497Z,16.71
2023-04-07T18:01:32.496Z,16.68
2023-04-07T18:04:00.396Z,16.70
2023-04-07T18:06:28.880Z,16.68
2023-04-07T18:08:57.604Z,16.67
2023-04-07T18:11:26.842Z,16.67
2023-04-07T18:13:54.095Z,16.66
2023-04-07T18:16:22.317Z,16.67
2023-04-07T18:18:49.628Z,16.66
2023-04-07T18:21:16.647Z,16.64
2023-04-07T18:23:43.585Z,16.65
2023-04-07T18:26:10.681Z,16.67
2023-04-07T18:28:38.662Z,16.65
2023-04-07T18:31:08.168Z,16.65
2023-04-07T18:33:35.580Z,16.67
2023-04-07T18:36:04.109Z,16.63
2023-04-07T18:38:31.486Z,16.64
2023-04-07T18:40:58.680Z,16.63
2023-04-07T18:43:25.663Z,16.63
2023-04-07T18:45:53.111Z,16.61
2023-04-07T18:48:20.846Z,16.61
2023-04-07T18:50:52.437Z,16.62
2023-04-07T18:53:20.174Z,16.62
2023-04-07T18:55:47.101Z,16.63
2023-04-07T18:58:14.883Z,16.63
2023-04-07T19:00:43.045Z,16.63
2023-04-07T19:03:10.104Z,16.64
2023-04-07T19:05:38.713Z,16.62
2023-04-07T19:08:06.147Z,16.63
2023-04-07T19:10:33.094Z,16.63
2023-04-07T19:13:01.002Z,16.63
2023-04-07T19:15:28.492Z,16.61
2023-04-07T19:17:55.513Z,16.60
2023-04-07T19:20:22.479Z,16.60
2023-04-07T19:22:49.296Z,16.61
2023-04-07T19:25:16.176Z,16.61
2023-04-07T19:27:43.136Z,16.62
2023-04-07T19:30:10.364Z,16.62
2023-04-07T19:32:37.313Z,16.62
2023-04-07T19:35:06.886Z,16.59
2023-04-07T19:37:33.738Z,16.61
2023-04-07T19:40:03.221Z,16.59
2023-04-07T19:42:30.737Z,16.59
2023-04-07T19:45:00.405Z,16.61
2023-04-07T19:47:28.298Z,16.58
2023-04-07T19:49:55.218Z,16.57
2023-04-07T19:52:22.364Z,16.59
2023-04-07T19:54:52.055Z,16.58
2023-04-07T19:57:18.931Z,16.58
2023-04-07T19:59:45.843Z,16.62
2023-04-07T20:02:12.843Z,16.59
2023-04-07T20:04:39.820Z,16.59
2023-04-07T20:07:06.810Z,16.56
2023-04-07T20:09:33.623Z,16.57
2023-04-07T20:12:02.016Z,16.56
2023-04-07T20:14:28.873Z,16.57
2023-04-07T20:16:56.092Z,16.58
2023-04-07T20:19:23.242Z,16.60
2023-04-07T20:21:50.099Z,16.56
2023-04-07T20:24:17.007Z,16.60
2023-04-07T20:26:44.070Z,16.54
2023-04-07T20:29:11.170Z,16.54
2023-04-07T20:31:38.056Z,16.57
2023-04-07T20:34:04.915Z,16.55
2023-04-07T20:36:31.710Z,16.57
2023-04-07T20:38:58.951Z,16.56
2023-04-07T20:41:25.897Z,16.55
2023-04-07T20:43:52.980Z,16.56
2023-04-07T20:46:20.185Z,16.57
2023-04-07T20:48:47.372Z,16.55
2023-04-07T20:51:14.585Z,16.57
2023-04-07T20:53:41.508Z,16.55
2023-04-07T20:56:08.705Z,16.53
2023-04-07T20:58:35.693Z,16.55
2023-04-07T21:01:02.627Z,16.54
2023-04-07T21:03:31.132Z,16.49
2023-04-07T21:05:58.116Z,16.50
2023-04-07T21:08:25.032Z,16.54
2023-04-07T21:10:52.901Z,16.51
2023-04-07T21:13:20.297Z,16.54
2023-04-07T21:15:47.255Z,16.56
2023-04-07T21:18:14.173Z,16.56
2023-04-07T21:20:41.066Z,16.56
2023-04-07T21:23:08.854Z,16.56
2023-04-07T21:25:38.925Z,16.59
2023-04-07T21:28:08.082Z,16.61
2023-04-07T21:30:34.961Z,16.54
2023-04-07T21:33:01.933Z,16.54
2023-04-07T21:35:29.105Z,16.56
2023-04-07T21:37:56.103Z,16.53
2023-04-07T21:40:23.344Z,16.52
2023-04-07T21:42:52.184Z,16.54
2023-04-07T21:45:19.824Z,16.52
2023-04-07T21:47:47.100Z,16.56
2023-04-07T21:50:14.093Z,16.52
2023-04-07T21:52:42.718Z,16.55
2023-04-07T21:55:11.141Z,16.58
2023-04-07T21:57:38.096Z,16.54
2023-04-07T22:00:05.558Z,16.57
2023-04-07T22:02:32.525Z,16.52
2023-04-07T22:04:59.821Z,16.57
2023-04-07T22:07:26.723Z,16.58
2023-04-07T22:09:53.594Z,16.57
2023-04-07T22:12:20.601Z,16.57
2023-04-07T22:14:47.478Z,16.56
2023-04-07T22:17:16.810Z,16.56
2023-04-07T22:19:43.748Z,16.55
2023-04-07T22:22:10.777Z,16.56
2023-04-07T22:24:37.675Z,16.55
2023-04-07T22:27:04.774Z,16.59
2023-04-07T22:29:31.694Z,16.56
2023-04-07T22:31:58.652Z,16.56
2023-04-07T22:34:25.614Z,16.59
2023-04-07T22:36:52.414Z,16.60
2023-04-07T22:39:19.277Z,16.59
2023-04-07T22:41:46.150Z,16.57
2023-04-07T22:44:13.031Z,16.56
2023-04-07T22:46:39.926Z,16.59
2023-04-07T22:49:06.807Z,16.57
2023-04-07T22:51:35.843Z,16.60
2023-04-07T22:54:02.720Z,16.59
2023-04-07T22:56:29.520Z,16.60
2023-04-07T22:58:57.759Z,16.58
2023-04-07T23:01:24.625Z,16.58
2023-04-07T23:03:51.615Z,16.59
2023-04-07T23:06:18.468Z,16.60
2023-04-07T23:08:45.278Z,16.58
2023-04-07T23:11:12.208Z,16.59
2023-04-07T23:13:41.420Z,16.58
2023-04-07T23:16:12.316Z,16.58
2023-04-07T23:18:39.786Z,16.60
2023-04-07T23:21:07.146Z,16.59
2023-04-07T23:23:35.240Z,16.60
2023-04-07T23:26:04.271Z,16.59
2023-04-07T23:28:31.083Z,16.60
2023-04-07T23:30:58.029Z,16.59
2023-04-07T23:33:24.834Z,16.59
2023-04-07T23:35:51.861Z,16.62
2023-04-07T23:38:18.700Z,16.59
2023-04-07T23:40:45.508Z,16.58
2023-04-07T23:43:12.453Z,16.58
2023-04-07T23:45:39.346Z,16.61
2023-04-07T23:48:06.826Z,16.58
2023-04-07T23:50:33.685Z,16.60
2023-04-07T23:53:00.671Z,16.59
2023-04-07T23:55:27.629Z,16.60
2023-04-07T23:57:54.482Z,16.59
